Time;durP1;ratioP1;P1;durP2;ratioP2;P2;SDS_P1;SDS_P2;PMS_P1;PMS_P2;Temp;Humidity;BMP_temperature;BMP_pressure;BME280_temperature;BME280_humidity;BME280_pressure;Samples;Min_cycle;Max_cycle;Signal;HPM_P1;HPM_P2
2022/01/02 00:02:20;;;;;;;;;80.75;65.00;11.70;71.30;;;;;;4957768;28;8879;-64
2022/01/02 00:04:49;;;;;;;;;76.75;61.00;11.90;70.40;;;;;;4958072;28;8776;-65
2022/01/02 00:07:16;;;;;;;;;75.50;61.75;11.50;71.40;;;;;;4957874;28;9426;-63
2022/01/02 00:09:50;;;;;;;;;74.00;59.75;11.50;72.40;;;;;;4957350;28;8958;-64
2022/01/02 00:12:25;;;;;;;;;75.50;60.50;11.50;72.50;;;;;;4957765;28;8795;-66
2022/01/02 00:14:55;;;;;;;;;78.00;60.50;11.40;73.00;;;;;;4957946;28;8761;-65
2022/01/02 00:17:23;;;;;;;;;75.00;59.50;11.40;73.00;;;;;;4957502;28;8812;-64
2022/01/02 00:19:54;;;;;;;;;75.75;60.00;11.50;72.50;;;;;;4957344;28;8816;-64
2022/01/02 00:22:28;;;;;;;;;73.25;58.00;11.80;70.40;;;;;;4957553;28;8792;-63
2022/01/02 00:24:56;;;;;;;;;82.00;64.50;11.70;70.30;;;;;;4957669;28;8768;-64
2022/01/02 00:27:22;;;;;;;;;80.50;67.50;11.80;71.20;;;;;;4957442;28;8812;-63
2022/01/02 00:29:49;;;;;;;;;80.50;65.25;11.80;70.30;;;;;;4957272;28;8776;-64
2022/01/02 00:32:16;;;;;;;;;76.25;63.00;11.60;70.80;;;;;;4957358;28;9603;-64
2022/01/02 00:34:43;;;;;;;;;82.75;69.75;11.70;70.70;;;;;;4957505;28;8795;-64
2022/01/02 00:37:09;;;;;;;;;79.75;62.25;11.50;71.80;;;;;;4957091;28;8788;-64
2022/01/02 00:39:36;;;;;;;;;77.00;61.25;11.70;70.80;;;;;;4957086;28;8808;-65
2022/01/02 00:42:10;;;;;;;;;72.25;57.50;11.70;71.30;;;;;;4957384;28;9410;-64
2022/01/02 00:45:00;;;;;;;;;80.25;62.00;11.80;70.30;;;;;;4957040;28;8757;-66
2022/01/02 00:47:32;;;;;;;;;79.75;65.50;11.70;70.80;;;;;;4956939;28;8768;-65
2022/01/02 00:50:09;;;;;;;;;82.50;70.75;11.60;70.80;;;;;;4957259;28;8858;-64
2022/01/02 00:52:41;;;;;;;;;84.50;77.50;11.60;70.90;;;;;;4957132;28;8756;-64
2022/01/02 00:55:13;;;;;;;;;83.25;69.50;11.70;70.60;;;;;;4957143;28;9494;-65
2022/01/02 00:57:42;;;;;;;;;82.50;66.00;11.50;71.00;;;;;;4937693;29;8827;-65
2022/01/02 01:00:14;;;;;;;;;77.25;61.50;11.20;72.50;;;;;;4937944;28;8869;-64
2022/01/02 01:02:57;;;;;;;;;75.50;58.50;11.40;72.50;;;;;;4955931;28;8785;-64
2022/01/02 01:05:34;;;;;;;;;75.50;62.50;11.70;70.30;;;;;;4956966;28;8827;-65
2022/01/02 01:08:02;;;;;;;;;82.00;62.75;11.50;71.10;;;;;;4956915;28;8803;-66
2022/01/02 01:10:31;;;;;;;;;74.50;61.50;11.70;70.60;;;;;;4956669;28;8768;-65
2022/01/02 01:13:00;;;;;;;;;78.00;62.25;11.50;71.10;;;;;;4956540;28;8882;-64
2022/01/02 01:15:28;;;;;;;;;78.00;63.25;11.50;70.50;;;;;;4956435;28;8839;-66
2022/01/02 01:17:56;;;;;;;;;74.75;63.50;11.70;70.40;;;;;;4956416;28;8914;-65
2022/01/02 01:20:24;;;;;;;;;77.25;64.25;11.70;69.50;;;;;;4956584;28;8780;-65
2022/01/02 01:22:50;;;;;;;;;73.25;59.50;11.50;71.20;;;;;;4956800;28;9492;-64
2022/01/02 01:25:18;;;;;;;;;72.00;59.00;11.40;72.00;;;;;;4956374;28;8891;-64
2022/01/02 01:27:48;;;;;;;;;79.00;62.00;11.50;70.90;;;;;;4956532;28;9389;-66
2022/01/02 01:30:16;;;;;;;;;73.00;58.00;11.70;70.40;;;;;;4956613;28;9686;-64
2022/01/02 01:32:43;;;;;;;;;77.25;62.75;12.00;68.40;;;;;;4956230;28;8773;-66
2022/01/02 01:35:10;;;;;;;;;72.25;59.75;11.90;68.50;;;;;;4956532;28;8871;-65
2022/01/02 01:37:37;;;;;;;;;77.00;59.75;11.50;70.50;;;;;;4956218;28;8828;-65
2022/01/02 01:40:04;;;;;;;;;70.00;56.00;11.30;72.00;;;;;;4956500;28;8916;-65
2022/01/02 01:42:37;;;;;;;;;77.75;60.00;11.40;71.70;;;;;;4956526;28;8810;-66
2022/01/02 01:47:47;;;;;;;;;70.75;57.00;11.20;72.80;;;;;;4956547;28;8792;-65
2022/01/02 01:50:13;;;;;;;;;71.75;58.75;10.80;75.10;;;;;;4956250;28;8781;-65
2022/01/02 01:52:39;;;;;;;;;74.00;58.00;11.10;73.90;;;;;;4956385;29;8776;-66
2022/01/02 01:55:07;;;;;;;;;73.00;58.00;11.30;72.30;;;;;;4956356;29;8753;-65
2022/01/02 01:57:33;;;;;;;;;71.50;58.00;11.80;69.80;;;;;;4956179;29;9584;-65
2022/01/02 01:59:59;;;;;;;;;74.25;59.00;11.50;70.80;;;;;;4956109;29;8780;-64
2022/01/02 02:02:26;;;;;;;;;72.00;57.50;11.50;70.80;;;;;;4955983;29;8768;-65
2022/01/02 02:04:52;;;;;;;;;76.75;57.75;11.50;70.60;;;;;;4956067;29;8871;-66
2022/01/02 02:07:26;;;;;;;;;74.00;56.50;11.30;71.70;;;;;;4955841;29;9450;-65
2022/01/02 02:10:11;;;;;;;;;65.00;52.75;11.40;71.90;;;;;;4956250;29;8780;-66
2022/01/02 02:12:39;;;;;;;;;67.50;54.50;11.50;71.10;;;;;;4956289;29;9414;-66
2022/01/02 02:15:06;;;;;;;;;66.75;54.50;11.20;72.40;;;;;;4955800;29;8854;-65
2022/01/02 02:17:32;;;;;;;;;68.25;56.00;11.30;71.80;;;;;;4955593;29;8887;-65
2022/01/02 02:20:10;;;;;;;;;74.00;59.50;11.10;73.20;;;;;;4956189;29;8776;-64
2022/01/02 02:22:41;;;;;;;;;69.75;55.50;11.40;71.70;;;;;;4955841;28;8796;-64
2022/01/02 02:25:08;;;;;;;;;74.75;60.00;11.60;70.30;;;;;;4959207;28;8800;-64
2022/01/02 02:27:33;;;;;;;;;66.50;51.25;11.50;70.70;;;;;;4959551;28;8836;-64
2022/01/02 02:29:59;;;;;;;;;70.50;57.75;11.30;72.30;;;;;;4959845;28;8839;-64
2022/01/02 02:32:25;;;;;;;;;73.50;56.00;11.20;72.40;;;;;;4959558;28;8847;-65
2022/01/02 02:34:51;;;;;;;;;65.25;53.00;11.30;72.20;;;;;;4959776;28;8764;-65
2022/01/02 02:37:17;;;;;;;;;65.25;53.00;11.40;71.60;;;;;;4959279;28;8879;-64
2022/01/02 02:39:43;;;;;;;;;63.50;49.50;11.70;69.90;;;;;;4959661;28;8793;-66
2022/01/02 02:42:28;;;;;;;;;70.25;56.00;11.40;71.20;;;;;;4959579;28;9482;-64
2022/01/02 02:48:33;;;;;;;;;67.75;56.75;11.80;69.30;;;;;;4959359;28;8835;-65
2022/01/02 02:50:24;;;;;;;;;62.50;50.75;11.40;70.70;;;;;;4959246;28;9403;-65
2022/01/02 02:52:49;;;;;;;;;64.75;52.00;11.30;71.50;;;;;;4959168;28;8779;-64
2022/01/02 02:55:15;;;;;;;;;61.75;49.00;11.20;72.00;;;;;;4959011;28;8933;-64
2022/01/02 02:57:41;;;;;;;;;60.25;48.25;11.20;72.10;;;;;;4959078;28;8858;-66
2022/01/02 03:00:07;;;;;;;;;63.25;51.75;11.10;74.40;;;;;;4959216;28;8772;-64
2022/01/02 03:02:33;;;;;;;;;57.50;47.75;11.20;72.30;;;;;;4958725;28;8793;-65
2022/01/02 03:04:59;;;;;;;;;57.25;47.25;11.30;71.20;;;;;;4958991;28;9399;-65
2022/01/02 03:07:25;;;;;;;;;59.75;46.25;11.40;70.70;;;;;;4941839;28;8783;-64
2022/01/02 03:09:52;;;;;;;;;54.75;43.50;11.30;71.60;;;;;;4959304;28;9456;-64
2022/01/02 03:12:21;;;;;;;;;53.25;43.25;11.20;71.80;;;;;;4958890;28;8875;-64
2022/01/02 03:14:46;;;;;;;;;54.75;43.00;11.10;72.70;;;;;;4941817;28;8859;-65
2022/01/02 03:17:12;;;;;;;;;53.25;43.00;11.00;72.70;;;;;;4958676;28;8825;-65
2022/01/02 03:19:38;;;;;;;;;51.50;43.50;11.00;73.50;;;;;;4958576;28;8827;-64
2022/01/02 03:22:07;;;;;;;;;55.50;43.25;11.10;72.90;;;;;;4958697;28;8764;-64
2022/01/02 03:24:33;;;;;;;;;54.75;45.75;11.20;72.80;;;;;;4942190;28;8814;-64
2022/01/02 03:26:59;;;;;;;;;50.50;43.50;11.10;72.90;;;;;;4958643;28;8802;-64
2022/01/02 03:29:25;;;;;;;;;48.75;40.00;11.40;71.30;;;;;;4958459;28;8780;-65
2022/01/02 03:31:51;;;;;;;;;50.25;40.00;11.40;70.80;;;;;;4958403;28;8790;-65
2022/01/02 03:34:16;;;;;;;;;47.50;38.00;11.40;71.20;;;;;;4958052;28;8792;-64
2022/01/02 03:36:42;;;;;;;;;51.75;42.00;11.20;71.40;;;;;;4957452;28;8951;-64
2022/01/02 03:39:08;;;;;;;;;50.25;42.00;11.10;73.00;;;;;;4958389;28;8761;-64
2022/01/02 03:41:33;;;;;;;;;46.50;40.00;10.90;73.70;;;;;;4958479;28;8785;-64
2022/01/02 03:43:59;;;;;;;;;50.75;43.00;10.70;74.80;;;;;;4958511;28;8776;-64
2022/01/02 03:46:25;;;;;;;;;48.00;41.00;11.00;73.80;;;;;;4958203;28;8777;-65
2022/01/02 03:48:51;;;;;;;;;50.50;42.50;11.70;69.90;;;;;;4958076;28;8799;-64
2022/01/02 03:51:17;;;;;;;;;44.00;39.00;11.80;68.80;;;;;;4957992;28;8815;-64
2022/01/02 03:53:42;;;;;;;;;41.00;38.00;11.60;69.30;;;;;;4958218;28;8796;-64
2022/01/02 03:56:08;;;;;;;;;52.25;43.50;11.50;69.90;;;;;;4950425;29;8791;-65
2022/01/02 03:58:34;;;;;;;;;50.50;43.75;11.50;70.00;;;;;;4939085;29;8806;-65
2022/01/02 04:01:00;;;;;;;;;53.25;43.75;11.40;70.00;;;;;;4943837;28;8768;-65
2022/01/02 04:03:25;;;;;;;;;54.50;45.00;11.40;70.40;;;;;;4958047;28;8768;-64
2022/01/02 04:05:51;;;;;;;;;51.50;44.25;11.70;69.00;;;;;;4957774;28;8826;-64
2022/01/02 04:08:17;;;;;;;;;47.25;41.25;11.90;67.70;;;;;;4957723;28;8787;-65
2022/01/02 04:10:43;;;;;;;;;48.00;39.25;11.70;68.40;;;;;;4957730;28;8827;-64
2022/01/02 04:13:08;;;;;;;;;52.50;41.75;11.30;70.50;;;;;;4957744;28;8768;-64
2022/01/02 04:15:34;;;;;;;;;51.00;42.50;11.30;70.60;;;;;;4957757;28;8791;-65
2022/01/02 04:18:00;;;;;;;;;52.00;41.00;11.40;70.70;;;;;;4957590;28;8828;-65
2022/01/02 04:20:26;;;;;;;;;41.25;37.00;11.60;69.30;;;;;;4957812;28;8765;-64
2022/01/02 04:22:52;;;;;;;;;44.00;39.25;11.50;69.90;;;;;;4957762;28;8768;-65
2022/01/02 04:25:18;;;;;;;;;41.00;37.25;11.50;69.60;;;;;;4957287;28;9415;-65
2022/01/02 04:27:43;;;;;;;;;43.75;38.50;11.50;70.00;;;;;;4957599;28;8820;-65
2022/01/02 04:30:12;;;;;;;;;36.00;35.50;11.90;67.70;;;;;;4957729;28;8873;-65
2022/01/02 04:32:38;;;;;;;;;41.00;37.75;11.90;67.30;;;;;;4957156;28;8787;-65
2022/01/02 04:35:04;;;;;;;;;39.00;34.50;11.80;68.20;;;;;;4957255;28;8808;-66
2022/01/02 04:37:30;;;;;;;;;34.75;33.75;11.80;68.20;;;;;;4957138;28;8793;-65
2022/01/02 04:39:56;;;;;;;;;37.25;35.00;12.20;66.40;;;;;;4957267;28;8959;-66
2022/01/02 04:42:21;;;;;;;;;36.00;34.75;12.30;65.60;;;;;;4957273;28;8862;-64
2022/01/02 04:44:47;;;;;;;;;34.25;33.50;12.40;65.00;;;;;;4957221;28;8795;-64
2022/01/02 04:47:13;;;;;;;;;36.50;35.25;12.30;65.30;;;;;;4956914;28;8784;-65
2022/01/02 04:49:39;;;;;;;;;36.25;34.75;12.50;64.80;;;;;;4957229;28;9491;-65
2022/01/02 04:52:04;;;;;;;;;29.25;28.00;12.30;65.20;;;;;;4957224;28;8764;-65
2022/01/02 04:54:30;;;;;;;;;32.25;32.25;12.70;63.80;;;;;;4956983;28;8784;-65
2022/01/02 04:56:56;;;;;;;;;33.50;33.50;12.90;62.90;;;;;;4957088;28;8882;-65
2022/01/02 04:59:22;;;;;;;;;39.50;36.00;12.80;62.80;;;;;;4940210;28;9434;-64
2022/01/02 05:01:48;;;;;;;;;39.25;37.25;12.50;64.30;;;;;;4956613;28;9418;-65
2022/01/02 05:04:14;;;;;;;;;46.75;39.25;12.40;64.50;;;;;;4956855;28;8809;-65
2022/01/02 05:06:39;;;;;;;;;44.00;36.75;12.40;64.50;;;;;;4956775;28;8852;-66
2022/01/02 05:09:05;;;;;;;;;41.25;35.50;12.40;64.50;;;;;;4939793;28;8883;-65
2022/01/02 05:11:31;;;;;;;;;49.00;40.00;12.50;64.20;;;;;;4956864;28;8859;-66
2022/01/02 05:13:57;;;;;;;;;53.00;42.75;12.30;64.60;;;;;;4956673;28;9460;-65
2022/01/02 05:16:23;;;;;;;;;54.50;45.25;12.30;64.70;;;;;;4956558;28;8761;-65
2022/01/02 05:18:49;;;;;;;;;50.50;44.00;12.20;64.80;;;;;;4956428;28;8797;-64
2022/01/02 05:21:15;;;;;;;;;58.50;47.00;12.40;64.40;;;;;;4956497;28;8776;-64
2022/01/02 05:23:42;;;;;;;;;51.25;43.25;12.20;64.30;;;;;;4956633;28;8784;-65
2022/01/02 05:26:08;;;;;;;;;60.75;49.50;12.30;64.30;;;;;;4956690;28;8772;-64
2022/01/02 05:28:34;;;;;;;;;58.25;46.75;12.40;62.80;;;;;;4956759;28;8858;-64
2022/01/02 05:30:59;;;;;;;;;65.25;53.75;12.30;62.50;;;;;;4956356;28;8780;-64
2022/01/02 05:33:25;;;;;;;;;72.00;58.25;12.10;63.00;;;;;;4956291;28;9522;-66
2022/01/02 05:35:52;;;;;;;;;71.00;56.75;11.70;64.20;;;;;;4956308;28;8780;-64
2022/01/02 05:38:19;;;;;;;;;70.00;56.75;11.50;65.20;;;;;;4956202;28;8824;-64
2022/01/02 05:40:46;;;;;;;;;70.75;56.00;11.20;66.00;;;;;;4956202;28;8883;-65
2022/01/02 05:43:12;;;;;;;;;80.25;62.25;11.30;66.30;;;;;;4956260;28;8764;-66
2022/01/02 05:45:38;;;;;;;;;78.25;60.75;10.90;67.90;;;;;;4956351;28;8769;-66
2022/01/02 05:48:05;;;;;;;;;77.25;59.75;11.00;68.20;;;;;;4956193;28;8805;-71
2022/01/02 05:50:31;;;;;;;;;76.25;61.25;11.00;67.40;;;;;;4956189;28;8776;-64
2022/01/02 05:52:57;;;;;;;;;84.75;74.50;10.90;67.90;;;;;;4956392;29;8780;-64
2022/01/02 05:55:23;;;;;;;;;84.00;72.25;11.00;67.00;;;;;;4956211;29;9533;-65
2022/01/02 05:57:48;;;;;;;;;87.50;73.00;10.80;67.60;;;;;;4956298;28;9501;-63
2022/01/02 06:00:14;;;;;;;;;96.50;88.50;10.70;68.10;;;;;;4960131;28;8784;-64
2022/01/02 06:02:40;;;;;;;;;95.00;87.50;10.90;67.60;;;;;;4959999;28;8903;-64
2022/01/02 06:05:07;;;;;;;;;92.75;82.00;11.10;66.70;;;;;;4960275;28;8764;-64
2022/01/02 06:07:33;;;;;;;;;94.00;86.75;11.20;65.90;;;;;;4959962;28;8761;-63
2022/01/02 06:10:03;;;;;;;;;99.50;90.00;11.00;66.30;;;;;;4959926;28;8792;-61
2022/01/02 06:12:29;;;;;;;;;106.00;101.75;10.90;66.80;;;;;;4960062;28;8784;-62
2022/01/02 06:14:55;;;;;;;;;123.50;110.25;10.70;68.00;;;;;;4959771;28;8878;-64
2022/01/02 06:17:20;;;;;;;;;148.25;138.75;10.90;67.70;;;;;;4959799;28;8839;-64
2022/01/02 06:19:46;;;;;;;;;173.25;155.50;11.20;66.40;;;;;;4959949;28;8863;-65
2022/01/02 06:22:12;;;;;;;;;183.75;167.25;11.40;66.40;;;;;;4959676;28;9411;-63
2022/01/02 06:24:38;;;;;;;;;178.50;160.50;11.10;67.60;;;;;;4960221;28;8772;-63
2022/01/02 06:27:04;;;;;;;;;157.00;151.50;11.00;68.00;;;;;;4958661;28;8911;-63
2022/01/02 06:29:29;;;;;;;;;156.25;155.50;11.30;66.90;;;;;;4959527;28;8776;-62
2022/01/02 06:31:57;;;;;;;;;146.75;131.75;11.30;66.20;;;;;;4959686;28;8784;-63
2022/01/02 06:34:23;;;;;;;;;163.75;153.25;11.00;66.10;;;;;;4959668;28;8907;-62
2022/01/02 06:36:49;;;;;;;;;167.00;153.00;10.40;68.60;;;;;;4959609;28;8894;-63
2022/01/02 06:39:15;;;;;;;;;172.75;159.25;10.40;69.30;;;;;;4959541;28;8773;-62
2022/01/02 06:41:40;;;;;;;;;186.75;162.50;10.60;69.30;;;;;;4959228;28;9424;-63
2022/01/02 06:44:06;;;;;;;;;187.00;177.25;10.80;68.20;;;;;;4959605;28;8772;-64
2022/01/02 06:46:32;;;;;;;;;201.00;183.00;11.00;66.90;;;;;;4959240;28;8867;-63
2022/01/02 06:48:58;;;;;;;;;191.00;176.25;11.10;66.30;;;;;;4959271;28;8764;-62
2022/01/02 06:51:24;;;;;;;;;155.75;144.50;11.10;67.10;;;;;;4959297;28;9527;-63
2022/01/02 06:53:49;;;;;;;;;163.75;144.25;11.30;66.70;;;;;;4959148;28;8847;-63
2022/01/02 06:56:15;;;;;;;;;143.25;131.00;11.10;67.40;;;;;;4959107;28;8857;-63
2022/01/02 06:58:41;;;;;;;;;114.25;107.75;11.20;66.90;;;;;;4959394;28;8812;-65
2022/01/02 07:01:07;;;;;;;;;102.25;90.25;10.90;69.10;;;;;;4958760;28;8808;-62
2022/01/02 07:03:33;;;;;;;;;100.50;93.00;10.50;70.80;;;;;;4958898;28;8808;-62
2022/01/02 07:06:02;;;;;;;;;88.00;81.00;10.60;70.90;;;;;;4959126;28;9442;-62
2022/01/02 07:08:28;;;;;;;;;83.50;67.25;10.70;69.50;;;;;;4958768;28;8879;-64
2022/01/02 07:10:55;;;;;;;;;93.25;87.50;10.60;70.60;;;;;;4941942;28;8902;-62
2022/01/02 07:13:23;;;;;;;;;98.50;95.25;10.30;72.50;;;;;;4959030;28;8769;-63
2022/01/02 07:15:49;;;;;;;;;174.00;163.00;9.90;75.30;;;;;;4959021;28;8791;-64
2022/01/02 07:18:15;;;;;;;;;177.00;173.50;9.60;77.90;;;;;;4958536;28;8828;-62
2022/01/02 07:20:41;;;;;;;;;204.00;192.50;9.70;77.60;;;;;;4958742;28;8790;-62
2022/01/02 07:23:07;;;;;;;;;202.50;186.50;10.10;74.60;;;;;;4958620;28;8784;-63
2022/01/02 07:25:33;;;;;;;;;168.75;165.25;10.80;71.30;;;;;;4958755;28;8812;-62
2022/01/02 07:27:58;;;;;;;;;166.25;151.75;11.30;68.90;;;;;;4958581;28;8816;-62
2022/01/02 07:30:24;;;;;;;;;157.50;149.75;11.30;68.10;;;;;;4958260;28;8906;-62
2022/01/02 07:32:50;;;;;;;;;153.00;144.50;11.00;69.70;;;;;;4958489;28;8776;-63
2022/01/02 07:35:16;;;;;;;;;173.00;159.00;11.10;69.60;;;;;;4958581;28;8792;-63
2022/01/02 07:37:42;;;;;;;;;166.25;152.50;11.10;69.20;;;;;;4958013;28;9615;-64
2022/01/02 07:40:09;;;;;;;;;168.00;154.50;11.20;68.70;;;;;;4958516;28;9655;-63
2022/01/02 07:42:35;;;;;;;;;183.50;166.00;11.30;68.80;;;;;;4958273;28;8780;-63
2022/01/02 07:45:01;;;;;;;;;196.50;181.50;11.60;67.40;;;;;;4958066;28;8760;-63
2022/01/02 07:47:27;;;;;;;;;196.25;181.25;11.80;66.70;;;;;;4941281;28;8844;-65
2022/01/02 07:49:52;;;;;;;;;221.00;204.00;11.80;66.80;;;;;;4958391;28;8776;-62
2022/01/02 07:52:18;;;;;;;;;228.75;212.00;11.90;66.80;;;;;;4958216;28;8785;-64
2022/01/02 07:54:44;;;;;;;;;235.75;213.00;12.00;66.20;;;;;;4958074;28;9375;-62
2022/01/02 07:57:10;;;;;;;;;226.00;205.00;12.00;65.80;;;;;;4941844;29;8989;-62
2022/01/02 07:59:35;;;;;;;;;253.00;232.75;12.00;66.20;;;;;;4938691;29;8793;-63
2022/01/02 08:02:01;;;;;;;;;250.00;224.00;11.80;67.00;;;;;;4952060;28;8769;-63
2022/01/02 08:04:27;;;;;;;;;239.25;222.75;12.00;66.30;;;;;;4958069;28;8777;-63
2022/01/02 08:06:53;;;;;;;;;282.25;260.50;12.30;65.30;;;;;;4957731;28;9415;-63
2022/01/02 08:09:19;;;;;;;;;278.25;257.50;12.40;65.40;;;;;;4957612;28;8780;-63
2022/01/02 08:11:44;;;;;;;;;256.25;236.75;12.60;64.60;;;;;;4957680;28;8898;-62
2022/01/02 08:14:11;;;;;;;;;232.00;212.75;12.60;64.80;;;;;;4957694;28;8781;-62
2022/01/02 08:16:37;;;;;;;;;207.75;189.00;12.40;66.10;;;;;;4957477;28;8796;-64
2022/01/02 08:19:05;;;;;;;;;164.25;153.75;12.20;66.90;;;;;;4956154;28;8831;-62
2022/01/02 08:21:31;;;;;;;;;160.50;149.50;12.80;65.10;;;;;;4956916;28;9465;-64
2022/01/02 08:23:57;;;;;;;;;157.25;142.50;13.10;64.20;;;;;;4957827;28;8776;-64
2022/01/02 08:26:23;;;;;;;;;153.75;142.25;13.40;63.30;;;;;;4957452;28;8812;-63
2022/01/02 08:28:50;;;;;;;;;183.50;167.00;13.40;63.20;;;;;;4957390;28;8906;-64
2022/01/02 08:31:16;;;;;;;;;168.75;161.00;13.50;63.10;;;;;;4957026;28;8907;-63
2022/01/02 08:33:42;;;;;;;;;173.00;161.50;13.50;63.20;;;;;;4956787;28;8890;-63
2022/01/02 08:36:08;;;;;;;;;161.50;154.00;13.40;63.70;;;;;;4957306;28;8781;-63
2022/01/02 08:38:34;;;;;;;;;169.75;158.25;12.90;66.20;;;;;;4957029;28;8852;-63
2022/01/02 08:41:00;;;;;;;;;204.25;187.50;12.70;67.60;;;;;;4956889;28;8874;-62
2022/01/02 08:43:25;;;;;;;;;205.75;188.25;12.90;67.10;;;;;;4956943;28;8808;-62
2022/01/02 08:45:51;;;;;;;;;185.75;176.25;13.40;65.10;;;;;;4956782;28;8761;-63
2022/01/02 08:48:17;;;;;;;;;161.75;156.50;13.80;63.90;;;;;;4955954;28;8923;-62
2022/01/02 08:50:43;;;;;;;;;177.75;169.00;14.00;62.90;;;;;;4956567;28;8804;-65
2022/01/02 08:53:08;;;;;;;;;166.00;151.50;14.00;62.90;;;;;;4956423;28;8776;-62
2022/01/02 08:55:35;;;;;;;;;158.75;143.00;14.30;62.50;;;;;;4956350;28;8816;-62
2022/01/02 08:58:02;;;;;;;;;135.50;124.50;14.20;62.70;;;;;;4956964;28;8816;-63
2022/01/02 09:00:27;;;;;;;;;110.00;105.00;13.80;63.90;;;;;;4956675;28;8773;-66
2022/01/02 09:02:53;;;;;;;;;106.75;98.25;13.90;64.00;;;;;;4955923;28;8792;-65
2022/01/02 09:05:19;;;;;;;;;110.00;103.75;14.00;62.90;;;;;;4955361;28;8782;-67
2022/01/02 09:07:45;;;;;;;;;86.50;81.00;14.30;62.10;;;;;;4946287;28;8786;-67
2022/01/02 09:10:11;;;;;;;;;100.75;95.00;14.30;62.70;;;;;;4955949;28;8871;-71
2022/01/02 09:12:37;;;;;;;;;118.75;116.75;14.60;61.30;;;;;;4956491;28;8915;-65
2022/01/02 09:15:03;;;;;;;;;113.25;109.50;15.10;60.00;;;;;;4956621;28;8756;-65
2022/01/02 09:17:29;;;;;;;;;122.75;116.00;15.20;59.70;;;;;;4955355;28;9467;-65
2022/01/02 09:19:57;;;;;;;;;104.25;99.50;15.50;58.30;;;;;;4956499;28;8796;-67
2022/01/02 09:22:23;;;;;;;;;88.75;87.75;15.80;57.50;;;;;;4956390;28;9003;-67
2022/01/02 09:24:49;;;;;;;;;96.00;85.50;15.90;57.20;;;;;;4956458;28;8808;-66
2022/01/02 09:27:14;;;;;;;;;80.25;76.00;15.80;57.00;;;;;;4955677;28;8769;-65
2022/01/02 09:29:40;;;;;;;;;78.25;72.50;15.70;56.90;;;;;;4956323;28;8777;-68
2022/01/02 09:32:06;;;;;;;;;80.75;71.25;15.70;57.00;;;;;;4955412;28;8859;-65
2022/01/02 09:34:31;;;;;;;;;85.25;81.75;15.90;56.80;;;;;;4956208;28;8776;-66
2022/01/02 09:36:57;;;;;;;;;84.75;80.00;15.90;56.40;;;;;;4956303;28;8843;-64
2022/01/02 09:39:23;;;;;;;;;81.75;78.50;15.50;58.10;;;;;;4956400;28;8798;-65
2022/01/02 09:41:49;;;;;;;;;91.00;84.50;15.40;58.10;;;;;;4956248;28;8756;-64
2022/01/02 09:44:15;;;;;;;;;88.75;86.75;15.60;57.70;;;;;;4956098;28;8855;-67
2022/01/02 09:46:41;;;;;;;;;91.50;84.00;15.40;58.10;;;;;;4955844;28;8812;-69
2022/01/02 09:49:08;;;;;;;;;88.50;86.75;15.70;57.10;;;;;;4956256;28;8782;-66
2022/01/02 09:51:34;;;;;;;;;79.50;70.50;15.70;57.10;;;;;;4956343;28;8800;-65
2022/01/02 09:54:00;;;;;;;;;79.00;67.00;15.40;59.50;;;;;;4956085;28;9812;-64
2022/01/02 09:56:26;;;;;;;;;74.25;65.75;15.30;58.80;;;;;;4946177;29;8775;-64
2022/01/02 09:58:52;;;;;;;;;75.50;68.00;15.70;57.60;;;;;;4937427;29;8799;-65
2022/01/02 10:01:20;;;;;;;;;52.25;44.50;15.60;58.90;;;;;;4944011;28;8876;-64
2022/01/02 10:03:53;;;;;;;;;54.25;43.75;15.30;59.40;;;;;;4955748;29;8776;-69
2022/01/02 10:06:21;;;;;;;;;49.00;38.00;16.00;56.40;;;;;;4956275;29;8795;-71
2022/01/02 10:08:47;;;;;;;;;59.50;48.50;16.60;54.80;;;;;;4954964;28;8823;-63
2022/01/02 10:11:25;;;;;;;;;60.50;50.00;16.50;55.90;;;;;;4955913;29;8865;-63
2022/01/02 10:14:02;;;;;;;;;61.75;49.00;16.40;56.70;;;;;;4955929;29;8776;-63
2022/01/02 10:16:37;;;;;;;;;55.00;45.50;17.60;54.50;;;;;;4962970;28;9466;-63
2022/01/02 10:19:38;;;;;;;;;49.33;41.33;20.30;49.90;;;;;;4954814;28;8802;-65
2022/01/02 10:22:06;;;;;;;;;53.67;44.00;23.90;41.80;;;;;;4859101;29;8933;-63
2022/01/02 10:24:37;;;;;;;;;50.00;42.67;27.20;35.80;;;;;;4859407;29;8922;-63
2022/01/02 10:27:08;;;;;;;;;52.33;44.33;30.00;32.20;;;;;;4859378;29;9586;-64
2022/01/02 10:29:50;;;;;;;;;35.67;33.33;30.90;29.60;;;;;;4859347;29;8819;-64
2022/01/02 10:32:43;;;;;;;;;35.33;32.67;31.60;28.20;;;;;;4858903;29;8834;-64
2022/01/02 10:35:13;;;;;;;;;46.00;40.00;31.70;28.50;;;;;;4859263;29;12306;-65
2022/01/02 10:37:44;;;;;;;;;40.33;35.00;31.30;28.70;;;;;;4859417;29;8839;-64
2022/01/02 10:40:27;;;;;;;;;40.00;34.67;32.30;27.80;;;;;;4859653;29;8798;-64
2022/01/02 10:42:53;;;;;;;;;30.33;29.33;33.00;27.00;;;;;;4859404;29;8875;-64
2022/01/02 10:45:41;;;;;;;;;25.00;25.00;34.40;26.40;;;;;;4861269;29;8791;-64
2022/01/02 10:48:12;;;;;;;;;27.75;27.25;34.10;26.50;;;;;;4862881;29;11510;-64
2022/01/02 10:50:40;;;;;;;;;24.00;24.00;34.90;25.60;;;;;;4862726;29;11512;-64
2022/01/02 10:53:17;;;;;;;;;26.50;26.50;36.40;25.00;;;;;;4862810;29;12396;-62
2022/01/02 10:55:45;;;;;;;;;22.25;22.25;35.70;24.90;;;;;;4862617;29;11607;-62
2022/01/02 10:58:12;;;;;;;;;30.67;29.67;35.60;24.80;;;;;;4934311;28;11553;-64
2022/01/02 11:00:39;;;;;;;;;29.00;28.33;35.10;24.90;;;;;;4958413;28;11467;-65
2022/01/02 11:03:06;;;;;;;;;25.25;25.25;34.30;25.60;;;;;;4958470;28;11616;-64
2022/01/02 11:05:35;;;;;;;;;22.00;22.00;35.40;24.60;;;;;;4958738;28;12135;-65
2022/01/02 11:08:02;;;;;;;;;23.00;23.00;35.40;24.40;;;;;;4959010;28;11575;-66
2022/01/02 11:10:31;;;;;;;;;22.25;22.25;35.10;24.40;;;;;;4958991;28;11474;-66
2022/01/02 11:12:57;;;;;;;;;27.25;27.00;36.30;23.70;;;;;;4958400;28;12123;-64
2022/01/02 11:15:27;;;;;;;;;11.75;11.25;37.00;23.50;;;;;;4958287;28;12123;-64
2022/01/02 11:17:54;;;;;;;;;25.00;25.00;35.20;24.50;;;;;;4958145;28;11500;-65
2022/01/02 11:20:26;;;;;;;;;17.67;17.67;34.70;24.80;;;;;;4958637;28;11455;-63
2022/01/02 11:22:54;;;;;;;;;32.00;30.00;35.00;24.80;;;;;;4958617;28;11522;-64
2022/01/02 11:25:31;;;;;;;;;19.25;19.25;36.50;24.30;;;;;;4958369;28;11466;-63
2022/01/02 11:28:22;;;;;;;;;24.50;24.50;35.50;24.10;;;;;;4958450;28;11491;-65
2022/01/02 11:30:50;;;;;;;;;25.00;25.00;36.50;24.00;;;;;;4947265;28;11448;-61
2022/01/02 11:33:19;;;;;;;;;24.00;24.00;36.50;23.80;;;;;;4958241;28;11584;-65
2022/01/02 11:35:49;;;;;;;;;21.50;21.50;38.30;22.40;;;;;;4958328;28;11452;-65
2022/01/02 11:38:17;;;;;;;;;26.33;26.33;38.20;22.50;;;;;;4958377;28;12161;-65
2022/01/02 11:40:53;;;;;;;;;21.00;21.00;38.50;22.30;;;;;;4958165;28;12134;-74
2022/01/02 11:43:48;;;;;;;;;25.33;25.33;38.20;22.40;;;;;;4957723;28;11517;-65
2022/01/02 11:46:27;;;;;;;;;29.00;28.00;38.10;22.10;;;;;;4958145;28;11496;-62
2022/01/02 11:49:05;;;;;;;;;23.67;23.67;38.10;22.30;;;;;;4958280;28;11460;-64
2022/01/02 11:51:53;;;;;;;;;23.33;23.33;38.00;22.10;;;;;;4957667;28;11536;-62
2022/01/02 11:54:40;;;;;;;;;13.75;12.75;37.00;22.50;;;;;;4957974;28;11440;-61
2022/01/02 11:57:14;;;;;;;;;28.67;28.00;34.90;24.00;;;;;;4941074;28;11561;-60
2022/01/02 11:59:40;;;;;;;;;25.00;25.00;34.60;24.60;;;;;;4938340;29;11469;-60
2022/01/02 12:02:26;;;;;;;;;27.33;27.00;35.10;24.30;;;;;;4952326;28;11452;-62
2022/01/02 12:04:58;;;;;;;;;22.75;22.75;37.50;22.80;;;;;;4944429;28;8784;-64
2022/01/02 12:07:37;;;;;;;;;22.50;22.50;36.80;22.90;;;;;;4957349;28;11545;-64
2022/01/02 12:12:59;;;;;;;;;0.50;0.50;37.80;22.20;;;;;;4957941;28;11536;-64
2022/01/02 12:15:31;;;;;;;;;19.25;19.25;37.50;22.10;;;;;;4957390;28;11405;-64
2022/01/02 12:18:16;;;;;;;;;20.00;20.00;37.40;22.40;;;;;;4957364;28;11554;-65
2022/01/02 12:20:51;;;;;;;;;23.00;23.00;36.80;22.80;;;;;;4957447;28;11470;-65
2022/01/02 12:23:56;;;;;;;;;23.25;23.25;37.20;22.40;;;;;;4957112;28;11639;-65
2022/01/02 12:26:29;;;;;;;;;23.25;23.25;37.50;22.10;;;;;;4957252;28;11633;-65
2022/01/02 12:29:07;;;;;;;;;23.75;23.75;36.90;22.10;;;;;;4957093;28;11596;-65
2022/01/02 12:31:43;;;;;;;;;22.25;22.25;37.50;22.10;;;;;;4957265;28;11496;-64
2022/01/02 12:34:12;;;;;;;;;27.67;27.33;38.00;21.80;;;;;;4957166;28;11467;-64
2022/01/02 12:36:42;;;;;;;;;27.33;27.33;38.10;21.20;;;;;;4957046;28;11577;-65
2022/01/02 12:39:24;;;;;;;;;18.50;18.50;37.70;21.50;;;;;;4957126;28;11447;-66
2022/01/02 12:41:50;;;;;;;;;24.33;24.33;36.20;22.20;;;;;;4957564;28;11558;-65
2022/01/02 12:44:24;;;;;;;;;27.00;27.00;36.80;22.00;;;;;;4957197;28;11494;-65
2022/01/02 12:46:53;;;;;;;;;34.00;32.00;36.10;22.20;;;;;;4957192;28;11465;-65